Airfield :
LOGIN :

Register | Disclaimer

   EN    FR    IT 

 










Legend :    VFR   Marginal VFR   IFR   Intensive IFR   Very Intensive IFR
Visi :
Ceiling :
>= 8 km
>= 3000ft
5 to 8 km
1000 to 3000 ft
1500m to 5 km
500 to 1000 ft
800 to 1500m
200 to 500 ft
< 800m
< 200 ft
Symbols :   Thunderstorms  Fog  Heavy snow  Heavy precipitations  Wind > 20 kt
SIGMETs :     Misc.  Thunderstorms  Icing  Turbulence  Mountain Waves  Volcanic Ashes







- Airport Elevation : 242 ft
- IATA code : DUB


EIDW - Dublin

CURRENT METAR :
  • 160530Z 21007KT 170V230 9999 FEW016 BKN022 08/05 Q1014 NOSIG

EXPIRED METARs :
  • 160500Z 21010KT 170V240 9999 FEW016 BKN022 08/05 Q1015 NOSIG
  • 160430Z 22010KT 190V260 9999 FEW016 BKN022 09/05 Q1014 NOSIG
  • 160400Z 22010KT 190V260 9999 FEW016 BKN022 09/05 Q1014 NOSIG
  • 160330Z 22011KT 190V250 9999 FEW016 SCT024 09/05 Q1014 NOSIG
  • 160300Z 22012KT 170V250 9999 FEW016 09/06 Q1014 NOSIG

TAF TAF EIDW
Valid from the 16 at 06:00 until the 17 at 06:00 UTC


160500Z 1606/1706 21013KT 9999 FEW015 SCT025
BECMG 1608/1610 18010KT
BECMG 1610/1612 18015KT
TEMPO 1611/1615 19017G28KT
BECMG 1616/1618 16015KT SCT006 BKN012
PROB30
TEMPO 1617/1622 3000 -DZ SCT003 BKN005
TEMPO 1619/1706 17017G30KT
No reported NOTAMs for that airfield.



MET'MAP, your aeronautical weather chart ! - Copyright ORBIFLY December 2007 - Disclaimer

ORBIFLY MET'MAP TEAM :

Programming & Development : Alexandra Zaïnal
Concept & Development : Baudouin d'Aumeries
Co-Development & Prog : Marc-Olivier Méhu
Technical & hardware support : Manuel Goepfert

Contact : metmap@orbifly.com




SOURCES & CREDITS :

   NOAA